TimeCST,TemperatureF,Dew PointF,Humidity,Sea Level PressureIn,VisibilityMPH,Wind Direction,Wind SpeedMPH,Gust SpeedMPH,PrecipitationIn,Events,Conditions,WindDirDegrees,DateUTC
12:15 AM,28.4,26.6,93,29.73,7.0,SSE,15.0,-,N/A,,Overcast,150,2013-03-04 06:15:00
12:35 AM,28.4,26.6,93,29.72,7.0,SSE,16.1,-,N/A,,Overcast,150,2013-03-04 06:35:00
12:55 AM,28.4,26.6,93,29.73,8.0,SSE,15.0,-,N/A,,Overcast,150,2013-03-04 06:55:00
1:15 AM,28.4,26.6,93,29.74,8.0,SSE,11.5,-,N/A,,Overcast,160,2013-03-04 07:15:00
1:35 AM,28.4,26.6,93,29.73,8.0,SSE,13.8,-,N/A,,Overcast,160,2013-03-04 07:35:00
1:55 AM,28.4,26.6,93,29.73,8.0,SSE,12.7,-,N/A,,Overcast,150,2013-03-04 07:55:00
2:15 AM,28.4,26.6,93,29.72,7.0,SSE,15.0,-,N/A,,Overcast,150,2013-03-04 08:15:00
2:35 AM,28.4,26.6,93,29.72,7.0,SSE,15.0,-,N/A,,Overcast,150,2013-03-04 08:35:00
2:55 AM,28.4,26.6,93,29.72,7.0,SSE,12.7,-,N/A,,Overcast,150,2013-03-04 08:55:00
3:15 AM,28.4,26.6,93,29.72,8.0,SSE,11.5,-,N/A,,Overcast,160,2013-03-04 09:15:00
3:35 AM,28.4,26.6,93,29.72,8.0,SSE,9.2,-,N/A,,Overcast,150,2013-03-04 09:35:00
3:55 AM,28.4,24.8,86,29.72,8.0,SSE,11.5,-,N/A,,Overcast,150,2013-03-04 09:55:00
4:15 AM,28.4,26.6,93,29.73,8.0,SSE,11.5,-,N/A,,Overcast,160,2013-03-04 10:15:00
4:35 AM,28.4,24.8,86,29.73,8.0,SSE,11.5,-,N/A,,Overcast,160,2013-03-04 10:35:00
4:55 AM,28.4,24.8,86,29.74,8.0,SSE,11.5,-,N/A,,Overcast,160,2013-03-04 10:55:00
5:15 AM,26.6,24.8,93,29.74,8.0,SSE,10.4,-,N/A,,Overcast,160,2013-03-04 11:15:00
5:35 AM,26.6,24.8,93,29.74,8.0,SSE,9.2,-,N/A,,Overcast,160,2013-03-04 11:35:00
6:15 AM,26.6,24.8,93,29.75,9.0,SSE,8.1,-,N/A,,Overcast,160,2013-03-04 12:15:00
6:35 AM,26.6,24.8,93,29.75,9.0,SSE,9.2,-,N/A,,Overcast,150,2013-03-04 12:35:00
6:55 AM,26.6,24.8,93,29.76,7.0,SSE,8.1,-,N/A,,Overcast,160,2013-03-04 12:55:00
7:15 AM,26.6,24.8,93,29.76,5.0,SSE,9.2,-,N/A,,Overcast,160,2013-03-04 13:15:00
7:35 AM,26.6,24.8,93,29.77,5.0,SSE,6.9,-,N/A,,Overcast,160,2013-03-04 13:35:00
7:55 AM,26.6,24.8,93,29.77,3.0,SSE,9.2,-,N/A,,Overcast,150,2013-03-04 13:55:00
8:15 AM,26.6,24.8,93,29.78,2.5,SSE,6.9,-,N/A,,Overcast,160,2013-03-04 14:15:00
8:35 AM,26.6,24.8,93,29.78,2.0,SSE,9.2,-,N/A,,Overcast,150,2013-03-04 14:35:00
8:55 AM,26.6,24.8,93,29.78,1.8,SSE,6.9,-,N/A,,Overcast,160,2013-03-04 14:55:00
9:15 AM,26.6,26.6,100,29.77,2.0,SSE,10.4,-,N/A,,Overcast,160,2013-03-04 15:15:00
9:35 AM,26.6,26.6,100,29.79,2.0,SSE,8.1,-,N/A,,Overcast,160,2013-03-04 15:35:00
9:55 AM,26.6,26.6,100,29.79,2.0,South,9.2,-,N/A,,Overcast,180,2013-03-04 15:55:00
10:15 AM,26.6,24.8,93,29.79,2.0,South,6.9,-,N/A,,Overcast,170,2013-03-04 16:15:00
10:35 AM,26.6,26.6,100,29.80,1.8,South,8.1,-,N/A,,Overcast,180,2013-03-04 16:35:00
10:55 AM,28.4,26.6,93,29.80,1.5,SSW,6.9,-,N/A,,Overcast,200,2013-03-04 16:55:00
11:15 AM,28.4,26.6,93,29.81,1.5,SSW,5.8,-,N/A,,Overcast,200,2013-03-04 17:15:00
11:35 AM,28.4,26.6,93,29.81,1.8,SSW,5.8,-,N/A,,Overcast,200,2013-03-04 17:35:00
11:55 AM,28.4,26.6,93,29.81,2.5,South,5.8,-,N/A,,Overcast,190,2013-03-04 17:55:00
12:15 PM,28.4,26.6,93,29.81,4.0,SSW,4.6,-,N/A,,Overcast,210,2013-03-04 18:15:00
12:55 PM,28.4,26.6,93,29.81,3.0,SSW,4.6,-,N/A,,Overcast,200,2013-03-04 18:55:00
1:15 PM,28.4,26.6,93,29.81,2.0,SSW,4.6,-,N/A,,Overcast,210,2013-03-04 19:15:00
1:35 PM,28.4,26.6,93,29.82,1.5,SW,5.8,-,N/A,,Overcast,220,2013-03-04 19:35:00
1:55 PM,28.4,28.4,100,29.81,2.0,SW,4.6,-,N/A,,Overcast,230,2013-03-04 19:55:00
2:15 PM,28.4,26.6,93,29.82,3.0,SW,4.6,-,N/A,,Overcast,230,2013-03-04 20:15:00
2:35 PM,28.4,26.6,93,29.82,3.0,SW,4.6,-,N/A,,Overcast,220,2013-03-04 20:35:00
2:55 PM,28.4,28.4,100,29.82,1.8,SW,4.6,-,N/A,,Overcast,230,2013-03-04 20:55:00
3:15 PM,30.2,28.4,93,29.83,3.0,WSW,3.5,-,N/A,,Overcast,240,2013-03-04 21:15:00
3:35 PM,30.2,28.4,93,29.83,3.0,Calm,Calm,-,N/A,,Overcast,0,2013-03-04 21:35:00
3:55 PM,30.2,28.4,93,29.82,4.0,Calm,Calm,-,N/A,,Overcast,0,2013-03-04 21:55:00
4:15 PM,32.0,30.2,93,29.84,5.0,Calm,Calm,-,N/A,,Overcast,0,2013-03-04 22:15:00
4:35 PM,30.2,28.4,93,29.84,5.0,Calm,Calm,-,N/A,,Scattered Clouds,0,2013-03-04 22:35:00
4:55 PM,30.2,28.4,93,29.84,4.0,Calm,Calm,-,N/A,,Clear,0,2013-03-04 22:55:00
5:15 PM,30.2,28.4,93,29.86,5.0,Calm,Calm,-,N/A,,Partly Cloudy,0,2013-03-04 23:15:00
5:35 PM,30.2,28.4,93,29.87,5.0,SSW,3.5,-,N/A,,Partly Cloudy,200,2013-03-04 23:35:00
5:55 PM,30.2,28.4,93,29.87,4.0,SSW,3.5,-,N/A,,Scattered Clouds,200,2013-03-04 23:55:00
6:15 PM,30.2,28.4,93,29.89,4.0,SSW,4.6,-,N/A,,Mostly Cloudy,210,2013-03-05 00:15:00
6:35 PM,30.2,28.4,93,29.90,4.0,SSW,3.5,-,N/A,,Overcast,200,2013-03-05 00:35:00
6:55 PM,30.2,28.4,93,29.89,6.0,Calm,Calm,-,N/A,,Overcast,0,2013-03-05 00:55:00
7:15 PM,30.2,28.4,93,29.91,10.0,WSW,4.6,-,N/A,,Mostly Cloudy,240,2013-03-05 01:15:00
7:35 PM,30.2,26.6,86,29.91,10.0,West,4.6,-,N/A,,Clear,270,2013-03-05 01:35:00
7:55 PM,30.2,24.8,80,29.91,10.0,West,4.6,-,N/A,,Scattered Clouds,280,2013-03-05 01:55:00
8:35 PM,28.4,23.0,80,29.92,10.0,West,5.8,-,N/A,,Overcast,280,2013-03-05 02:35:00
8:55 PM,28.4,23.0,80,29.93,10.0,West,6.9,-,N/A,,Overcast,260,2013-03-05 02:55:00
9:15 PM,28.4,19.4,69,29.92,10.0,West,9.2,-,N/A,,Scattered Clouds,270,2013-03-05 03:15:00
9:35 PM,28.4,19.4,69,29.92,10.0,West,12.7,-,N/A,,Mostly Cloudy,270,2013-03-05 03:35:00
9:55 PM,26.6,19.4,74,29.92,10.0,West,13.8,-,N/A,,Scattered Clouds,280,2013-03-05 03:55:00
10:15 PM,26.6,19.4,74,29.92,10.0,West,10.4,-,N/A,,Clear,280,2013-03-05 04:15:00
10:35 PM,26.6,21.2,80,29.91,10.0,West,10.4,-,N/A,,Scattered Clouds,280,2013-03-05 04:35:00
10:55 PM,26.6,21.2,80,29.91,10.0,West,10.4,-,N/A,,Overcast,270,2013-03-05 04:55:00
11:15 PM,26.6,21.2,80,29.91,10.0,West,11.5,-,N/A,,Overcast,280,2013-03-05 05:15:00
11:35 PM,26.6,21.2,80,29.91,10.0,WNW,10.4,-,N/A,,Overcast,290,2013-03-05 05:35:00
11:55 PM,24.8,21.2,86,29.91,10.0,WNW,6.9,-,N/A,,Overcast,290,2013-03-05 05:55:00